Time;durP1;ratioP1;P1;durP2;ratioP2;P2;SDS_P1;SDS_P2;PMS_P1;PMS_P2;Temp;Humidity;BMP_temperature;BMP_pressure;BME280_temperature;BME280_humidity;BME280_pressure;Samples;Min_cycle;Max_cycle;Signal;HPM_P1;HPM_P2
2022/12/24 00:01:38;;;;;;;31.35;15.68;;;;;;;3.20;79.80;98656.09;4889627;29;20048;-94
2022/12/24 00:04:37;;;;;;;35.33;17.15;;;;;;;2.98;79.96;98624.94;4895742;29;20095;-93
2022/12/24 00:07:03;;;;;;;26.92;13.50;;;;;;;3.29;80.05;98689.53;4877381;29;20052;-93
2022/12/24 00:09:30;;;;;;;33.25;16.52;;;;;;;3.68;79.75;98738.16;4865528;29;20036;-94
2022/12/24 00:12:02;;;;;;;32.60;17.17;;;;;;;3.35;79.65;98676.81;4878854;29;20087;-94
2022/12/24 00:14:32;;;;;;;38.25;17.27;;;;;;;3.32;79.65;98670.06;4912332;23;20044;-94
2022/12/24 00:16:58;;;;;;;33.13;15.85;;;;;;;3.00;79.47;98621.94;4891315;29;20061;-94
2022/12/24 00:19:42;;;;;;;37.30;16.58;;;;;;;3.41;80.08;98703.50;4906500;29;20183;-93
2022/12/24 00:22:09;;;;;;;34.22;16.77;;;;;;;3.18;80.18;98664.50;4894493;29;20073;-95
2022/12/24 00:24:41;;;;;;;38.20;17.13;;;;;;;3.63;79.90;98732.78;4887045;29;20031;-95
2022/12/24 00:27:09;;;;;;;33.15;16.15;;;;;;;3.21;80.07;98674.72;4892465;29;20029;-95
2022/12/24 00:29:38;;;;;;;40.42;16.85;;;;;;;3.22;80.05;98679.03;4898698;29;20104;-94
2022/12/24 00:32:10;;;;;;;34.53;16.52;;;;;;;3.54;79.43;98710.13;4898235;29;20156;-95
2022/12/24 00:35:04;;;;;;;32.28;16.48;;;;;;;3.06;79.67;98651.31;4911584;29;20107;-93
2022/12/24 00:37:30;;;;;;;36.10;16.60;;;;;;;3.33;79.79;98678.97;4883295;29;20454;-93
2022/12/24 00:39:58;;;;;;;33.88;17.02;;;;;;;3.43;79.70;98687.78;4899290;29;20289;-93
2022/12/24 00:42:25;;;;;;;31.67;15.73;;;;;;;3.73;79.51;98724.59;4869787;29;20072;-96
2022/12/24 00:44:52;;;;;;;29.17;14.60;;;;;;;3.53;79.12;98685.03;4890235;29;20434;-93
2022/12/24 00:47:19;;;;;;;32.35;16.13;;;;;;;3.02;79.32;98634.06;4887117;29;20040;-94
2022/12/24 00:50:01;;;;;;;34.15;16.40;;;;;;;3.38;79.54;98700.53;4870949;29;20049;-94
2022/12/24 00:52:29;;;;;;;41.75;17.48;;;;;;;2.98;79.42;98637.59;4885786;29;20040;-93
2022/12/24 00:54:56;;;;;;;35.30;17.60;;;;;;;3.42;79.90;98715.91;4890528;29;20061;-93
2022/12/24 00:57:22;;;;;;;30.50;15.43;;;;;;;3.26;79.50;98669.28;4886079;29;20068;-94
2022/12/24 00:59:48;;;;;;;35.72;16.65;;;;;;;3.79;79.26;98743.50;4882998;29;20075;-96
2022/12/24 01:02:14;;;;;;;30.45;16.17;;;;;;;3.41;78.71;98695.41;4884586;29;20052;-94
2022/12/24 01:07:25;;;;;;;29.40;14.32;;;;;;;3.18;78.78;98640.19;4895385;29;20052;-93
2022/12/24 01:09:55;;;;;;;28.52;13.80;;;;;;;3.13;78.77;98639.41;4895667;29;20538;-94
2022/12/24 01:13:03;;;;;;;31.02;14.13;;;;;;;3.28;78.59;98677.91;4860721;29;20087;-93
2022/12/24 01:15:51;;;;;;;26.85;13.70;;;;;;;3.21;78.56;98661.22;4840051;29;20105;-95
2022/12/24 01:18:18;;;;;;;22.38;12.43;;;;;;;3.34;78.39;98675.16;4847609;29;20089;-94
2022/12/24 01:20:45;;;;;;;29.00;14.13;;;;;;;3.58;78.27;98710.41;4846796;29;20076;-92
2022/12/24 01:23:12;;;;;;;25.73;13.70;;;;;;;3.20;78.13;98651.50;4830504;29;20058;-92
2022/12/24 01:25:38;;;;;;;23.00;12.93;;;;;;;3.74;78.29;98744.31;4838079;29;20058;-94
2022/12/24 01:28:05;;;;;;;23.95;12.65;;;;;;;3.42;78.44;98702.41;4844841;29;20045;-94
2022/12/24 01:30:31;;;;;;;25.55;13.52;;;;;;;3.20;78.19;98651.50;4834208;29;20094;-91
2022/12/24 01:32:58;;;;;;;;;;;;;;;3.76;78.39;98736.75;4849807;29;20056;-92
2022/12/24 01:35:33;;;;;;;22.50;11.38;;;;;;;3.08;78.32;98644.81;4831726;29;19924;-95
2022/12/24 01:37:59;;;;;;;30.25;12.82;;;;;;;2.99;78.62;98644.63;4832162;29;20077;-92
2022/12/24 01:43:31;;;;;;;26.85;12.55;;;;;;;3.41;78.74;98705.38;4830544;29;20057;-93
2022/12/24 01:46:11;;;;;;;24.13;12.65;;;;;;;3.68;78.69;98734.66;4814744;29;20145;-93
2022/12/24 01:48:48;;;;;;;21.88;11.80;;;;;;;3.32;78.32;98685.47;4830188;29;20049;-93
2022/12/24 01:51:34;;;;;;;24.08;12.52;;;;;;;3.69;78.45;98738.97;4881040;29;20033;-94
2022/12/24 01:54:29;;;;;;;27.95;13.05;;;;;;;3.64;78.66;98737.13;4898057;23;20096;31
2022/12/24 01:57:06;;;;;;;23.75;12.55;;;;;;;3.63;78.57;98740.88;4920808;23;20065;-93
2022/12/24 02:00:00;;;;;;;28.30;13.98;;;;;;;3.70;78.24;98744.06;4970722;23;20049;-93
2022/12/24 02:02:33;;;;;;;25.92;12.70;;;;;;;3.11;78.16;98642.38;5043211;23;20040;-93
2022/12/24 02:05:12;;;;;;;25.65;12.00;;;;;;;3.14;77.77;98649.91;4877844;29;20021;-93
2022/12/24 02:07:40;;;;;;;24.75;11.52;;;;;;;3.41;78.31;98706.19;4954538;23;20064;-91
2022/12/24 02:10:11;;;;;;;23.45;13.00;;;;;;;3.55;78.20;98719.88;4908346;29;20100;-92
2022/12/24 02:12:44;;;;;;;26.85;12.30;;;;;;;3.10;78.04;98650.75;4952999;23;20037;-91
2022/12/24 02:15:58;;;;;;;21.95;12.13;;;;;;;3.72;78.40;98747.31;4870545;29;20044;-91
2022/12/24 02:18:53;;;;;;;25.30;13.52;;;;;;;3.29;78.32;98692.22;4814076;29;20547;-92
2022/12/24 02:21:42;;;;;;;27.80;14.82;;;;;;;3.76;78.30;98751.06;4805786;29;20141;-92
2022/12/24 02:24:31;;;;;;;27.83;15.10;;;;;;;3.46;78.25;98714.25;4855275;29;20083;-92
2022/12/24 02:27:39;;;;;;;28.85;15.73;;;;;;;3.49;77.99;98713.69;4879905;29;20076;-92
2022/12/24 02:30:35;;;;;;;25.02;13.65;;;;;;;3.52;78.48;98721.25;4843518;29;20052;-92
2022/12/24 02:33:17;;;;;;;25.33;14.05;;;;;;;3.25;78.24;98685.78;4842896;29;20088;-91
2022/12/24 02:35:59;;;;;;;28.95;14.65;;;;;;;3.47;78.49;98726.66;4855866;29;20503;-91
2022/12/24 02:39:07;;;;;;;28.13;14.55;;;;;;;3.05;78.25;98659.72;4862436;29;20087;-94
2022/12/24 02:42:04;;;;;;;28.20;14.73;;;;;;;3.21;78.49;98698.22;4749188;29;20047;-93
2022/12/24 02:45:39;;;;;;;29.33;13.45;;;;;;;3.58;78.96;98759.06;4822112;29;20054;-96
2022/12/24 02:48:06;;;;;;;28.10;13.93;;;;;;;3.05;78.89;98660.50;4796749;30;20039;-92
2022/12/24 02:51:02;;;;;;;24.70;14.57;;;;;;;3.41;78.05;98711.59;4785230;29;20426;-93
2022/12/24 02:53:49;;;;;;;24.98;13.98;;;;;;;3.36;77.96;98698.13;4913467;24;20064;-95
2022/12/24 02:56:31;;;;;;;26.58;14.73;;;;;;;3.92;77.61;98762.56;4893942;29;20048;-94
2022/12/24 02:59:12;;;;;;;27.48;13.65;;;;;;;3.70;77.00;98719.75;4884007;29;20055;-94
2022/12/24 03:02:06;;;;;;;28.45;14.55;;;;;;;3.99;76.79;98754.94;4872753;29;20132;-92
2022/12/24 03:04:47;;;;;;;29.67;15.30;;;;;;;3.85;76.72;98726.13;4895764;29;20048;-93
2022/12/24 03:07:26;;;;;;;29.75;13.93;;;;;;;3.58;76.64;98684.19;4906399;29;20062;-96
2022/12/24 03:10:10;;;;;;;;;;;;;;;4.10;76.26;98742.13;4879795;29;20040;-96
2022/12/24 03:13:01;;;;;;;26.40;14.50;;;;;;;4.09;76.33;98750.53;4887378;29;19919;-93
2022/12/24 03:15:30;;;;;;;28.80;14.40;;;;;;;3.69;76.27;98674.91;4900784;29;20041;-92
2022/12/24 03:18:19;;;;;;;28.83;14.85;;;;;;;3.74;76.20;98671.34;4898611;29;20040;-96
2022/12/24 03:21:09;;;;;;;28.58;14.75;;;;;;;4.14;75.83;98742.34;4876859;29;20044;-92
2022/12/24 03:23:37;;;;;;;35.70;14.85;;;;;;;3.66;76.13;98666.56;4888698;29;20054;-93
2022/12/24 03:26:07;;;;;;;37.53;16.30;;;;;;;3.94;76.65;98749.59;4891028;29;20291;-93
2022/12/24 03:28:36;;;;;;;38.97;16.38;;;;;;;3.67;77.11;98706.00;4886162;29;20033;-94
2022/12/24 03:31:04;;;;;;;35.05;16.30;;;;;;;3.59;77.46;98725.53;4886858;29;20503;-94
2022/12/24 03:33:31;;;;;;;35.10;16.70;;;;;;;2.98;78.13;98643.81;4874647;29;20076;-93
2022/12/24 03:35:57;;;;;;;35.53;16.60;;;;;;;3.26;78.31;98688.19;4875178;29;20048;-93
2022/12/24 03:38:23;;;;;;;38.38;17.55;;;;;;;3.13;78.12;98650.19;4901358;29;20041;-92
2022/12/24 03:41:19;;;;;;;32.85;17.10;;;;;;;3.08;78.17;98658.31;4885713;29;20040;-95
2022/12/24 03:44:49;;;;;;;33.75;16.75;;;;;;;3.08;78.17;98661.84;4907450;29;20068;-94
2022/12/24 03:50:57;;;;;;;36.80;17.92;;;;;;;3.63;78.22;98692.25;5265116;23;20052;-93
2022/12/24 03:57:38;;;;;;;37.25;17.33;;;;;;;3.65;78.43;98746.03;4856872;29;20083;-95
2022/12/24 04:05:10;;;;;;;32.35;16.20;;;;;;;3.20;78.48;98692.00;4882986;29;20057;-92
2022/12/24 05:17:34;;;;;;;45.85;18.48;;;;;;;2.90;79.14;98590.41;4893933;29;20073;-95
2022/12/24 05:26:23;;;;;;;47.97;18.65;;;;;;;3.26;78.78;98625.25;4793029;29;20055;-94
2022/12/24 05:28:54;;;;;;;39.20;18.27;;;;;;;3.64;78.48;98680.38;4789299;29;20063;-95
2022/12/24 05:31:23;;;;;;;36.83;16.92;;;;;;;3.17;78.21;98606.13;4772648;29;20051;-95
2022/12/24 05:33:49;;;;;;;46.75;18.35;;;;;;;3.27;78.68;98619.56;4788611;29;20157;-93
2022/12/24 05:36:16;;;;;;;41.67;20.33;;;;;;;3.15;78.90;98610.22;4802630;29;20049;-94
2022/12/24 05:38:44;;;;;;;44.35;20.00;;;;;;;3.41;78.97;98660.28;4820156;29;20118;-93
2022/12/24 05:41:11;;;;;;;42.58;19.45;;;;;;;3.60;79.08;98665.78;4884605;24;20052;-95
2022/12/24 05:43:37;;;;;;;46.85;21.23;;;;;;;3.46;79.17;98638.59;4839466;29;20190;-94
2022/12/24 05:46:09;;;;;;;50.42;21.20;;;;;;;3.55;78.71;98627.19;4838441;29;20058;-94
2022/12/24 05:48:35;;;;;;;49.50;21.48;;;;;;;3.75;78.19;98659.44;4809070;29;20576;-94
2022/12/24 05:51:10;;;;;;;43.15;20.77;;;;;;;3.76;77.98;98674.56;4842909;29;20423;-93
2022/12/24 05:53:47;;;;;;;59.10;21.60;;;;;;;3.32;77.94;98605.22;4842925;29;20052;-93
2022/12/24 05:56:16;;;;;;;55.42;21.45;;;;;;;3.47;77.89;98615.88;4861766;29;20073;-94
2022/12/24 05:58:43;;;;;;;58.55;21.63;;;;;;;3.78;77.95;98667.00;4824870;29;20046;-94
2022/12/24 06:01:10;;;;;;;58.58;23.27;;;;;;;3.59;77.79;98637.16;4820281;29;20046;-92
2022/12/24 06:03:37;;;;;;;49.10;20.92;;;;;;;3.64;77.47;98639.00;4857139;29;20048;-94
2022/12/24 06:06:23;;;;;;;46.47;20.40;;;;;;;3.83;77.47;98663.44;4839252;29;20050;-94
2022/12/24 06:08:50;;;;;;;53.10;20.73;;;;;;;3.83;77.72;98666.13;4834280;29;20048;-90
2022/12/24 06:11:22;;;;;;;60.30;22.17;;;;;;;3.83;77.55;98666.94;4838425;29;20050;-93
2022/12/24 06:13:57;;;;;;;52.45;22.63;;;;;;;3.82;77.63;98676.13;4834231;29;20563;-93
2022/12/24 06:16:24;;;;;;;52.22;21.95;;;;;;;3.72;77.11;98630.28;4822823;29;20045;-92
2022/12/24 06:18:51;;;;;;;52.47;21.63;;;;;;;3.46;77.27;98598.06;4835000;29;20042;-94
2022/12/24 06:21:18;;;;;;;60.97;23.67;;;;;;;3.89;77.49;98654.19;4834580;29;20050;-95
2022/12/24 06:23:48;;;;;;;63.38;24.02;;;;;;;3.43;77.15;98571.63;4835380;29;20049;-94
2022/12/24 06:26:22;;;;;;;54.58;22.05;;;;;;;3.86;77.80;98655.56;4827665;29;20093;-93
2022/12/24 06:28:51;;;;;;;60.00;23.17;;;;;;;3.63;77.58;98619.28;4872869;29;20064;-94
2022/12/24 06:31:21;;;;;;;54.75;22.60;;;;;;;4.14;77.53;98701.78;4840873;29;20037;-93
2022/12/24 06:33:58;;;;;;;57.58;22.23;;;;;;;3.57;77.36;98603.38;4861317;29;20084;-94
2022/12/24 06:45:27;;;;;;;45.22;19.85;;;;;;;3.67;77.02;98611.41;4820389;29;20062;-95
2022/12/24 07:01:40;;;;;;;47.38;19.33;;;;;;;4.30;76.89;98684.31;4920492;24;20056;-95
2022/12/24 07:14:45;;;;;;;51.53;21.08;;;;;;;4.00;76.50;98640.25;4870886;29;20507;-95
2022/12/24 07:17:55;;;;;;;57.65;22.70;;;;;;;3.78;76.67;98593.22;4816835;29;20130;-96
2022/12/24 07:21:08;;;;;;;;;;;;;;;;;;;;;
2022/12/24 08:05:56;;;;;;;43.50;20.90;;;;;;;4.34;75.40;98690.78;4939782;23;20084;-91
2022/12/24 08:08:22;;;;;;;36.00;16.83;;;;;;;3.96;75.72;98644.63;4871027;23;20536;-90
2022/12/24 08:10:52;;;;;;;43.97;23.73;;;;;;;4.33;75.71;98691.84;4865010;23;20050;31
2022/12/24 08:13:22;;;;;;;39.10;20.23;;;;;;;3.80;75.50;98599.13;4850867;29;20048;-94
2022/12/24 08:16:06;;;;;;;33.28;16.95;;;;;;;3.86;75.55;98633.13;4838774;29;20504;-93
2022/12/24 08:18:55;;;;;;;30.55;14.93;;;;;;;4.36;75.68;98694.00;4810572;29;20046;-93
2022/12/24 08:22:12;;;;;;;35.50;16.58;;;;;;;4.22;76.08;98698.47;4852489;29;20065;-92
2022/12/24 08:34:16;;;;;;;30.10;14.77;;;;;;;3.85;75.76;98635.03;4989270;23;20052;-92
2022/12/24 08:37:12;;;;;;;33.55;15.25;;;;;;;3.63;75.71;98597.66;5011338;23;20060;-93
2022/12/24 08:39:44;;;;;;;37.80;16.60;;;;;;;4.03;75.30;98649.69;4879310;29;20056;-93
2022/12/24 08:42:15;;;;;;;27.48;13.60;;;;;;;3.94;75.28;98654.94;4881948;29;20044;-93
2022/12/24 08:44:44;;;;;;;34.80;17.23;;;;;;;4.19;75.69;98689.03;4882338;29;20071;-93
2022/12/24 09:04:38;;;;;;;108.72;32.28;;;;;;;4.28;74.17;98635.13;5120103;23;20137;-93
2022/12/24 09:10:38;;;;;;;249.25;69.55;;;;;;;4.67;73.21;98655.75;4991302;23;20092;-93
2022/12/24 09:13:12;;;;;;;147.07;45.00;;;;;;;4.19;72.84;98601.66;4835974;29;20113;-95
2022/12/24 09:16:02;;;;;;;165.10;50.75;;;;;;;3.91;73.68;98587.91;4827520;29;20050;-94
2022/12/24 09:37:24;;;;;;;37.10;17.50;;;;;;;4.81;72.38;98645.81;5045096;23;20043;-94
2022/12/24 09:40:19;;;;;;;36.40;17.92;;;;;;;4.33;72.22;98548.47;5319432;23;20027;31
2022/12/24 09:42:51;;;;;;;38.30;20.52;;;;;;;5.06;71.90;98641.13;4869603;29;20034;-91
2022/12/24 09:49:12;;;;;;;63.92;27.08;;;;;;;4.89;72.35;98641.66;4959881;23;20056;-93
2022/12/24 09:53:26;;;;;;;73.13;34.97;;;;;;;4.93;72.40;98639.94;4992516;23;20047;-91
2022/12/24 10:37:27;;;;;;;45.70;19.63;;;;;;;4.68;72.84;98570.75;5196134;23;20080;-93
2022/12/24 10:40:48;;;;;;;43.15;19.25;;;;;;;4.42;73.49;98565.66;4911702;29;20462;-95
2022/12/24 11:08:19;;;;;;;32.72;15.73;;;;;;;4.91;73.36;98644.88;600656;23;20311;-90
2022/12/24 11:15:04;;;;;;;26.13;14.00;;;;;;;4.67;74.08;98648.44;4841180;29;20038;-93
2022/12/24 11:18:05;;;;;;;30.40;15.00;;;;;;;4.18;74.26;98570.31;4844098;29;20059;-93
2022/12/24 11:25:33;;;;;;;29.23;14.90;;;;;;;4.48;74.59;98636.78;5256400;23;20048;-96
2022/12/24 11:34:44;;;;;;;27.75;13.95;;;;;;;4.25;74.91;98616.75;5012173;23;20067;-94
2022/12/24 11:38:08;;;;;;;34.80;14.18;;;;;;;4.02;74.88;98558.06;5308560;23;20079;-93
2022/12/24 11:41:28;;;;;;;;;;;;;;;4.68;74.72;98657.38;4971076;23;20060;-94
2022/12/24 12:05:18;;;;;;;27.08;13.90;;;;;;;4.79;73.92;98701.34;4810727;29;20062;-94
2022/12/24 12:26:55;;;;;;;27.10;14.00;;;;;;;4.94;73.30;98718.22;5008074;23;20060;-94
2022/12/24 12:30:37;;;;;;;31.25;14.55;;;;;;;4.85;73.51;98725.38;5135197;23;20288;-94
2022/12/24 12:33:37;;;;;;;26.05;13.38;;;;;;;4.38;73.38;98672.88;4994052;23;21138;-95
2022/12/24 12:42:26;;;;;;;26.40;11.70;;;;;;;4.72;73.01;98734.19;4841255;29;20033;-95
2022/12/24 12:45:15;;;;;;;22.30;11.13;;;;;;;4.87;72.61;98739.44;4804258;29;20103;-94
2022/12/24 12:48:54;;;;;;;27.90;12.10;;;;;;;4.26;72.69;98648.09;4812404;29;20096;-93
2022/12/24 13:41:37;;;;;;;44.38;21.95;;;;;;;4.65;73.24;98798.72;4896502;29;20064;-93
2022/12/24 13:44:31;;;;;;;34.47;18.80;;;;;;;4.59;73.21;98800.66;4864188;29;20073;-93
2022/12/24 13:47:17;;;;;;;33.15;18.75;;;;;;;4.33;73.25;98767.63;4837201;29;20060;-95
2022/12/24 13:49:52;;;;;;;23.77;13.02;;;;;;;4.32;73.28;98782.25;4855120;29;20460;-94
2022/12/24 13:52:31;;;;;;;26.13;13.60;;;;;;;3.93;73.71;98731.72;4848675;29;20064;-94
2022/12/24 13:54:57;;;;;;;18.30;11.27;;;;;;;4.54;73.30;98821.56;4839680;29;20068;-94
2022/12/24 13:57:31;;;;;;;22.95;13.40;;;;;;;4.45;73.83;98824.88;4840396;29;20072;-94
2022/12/24 14:00:21;;;;;;;22.77;13.20;;;;;;;4.08;73.52;98757.03;4860568;29;20063;-93
2022/12/24 14:02:50;;;;;;;23.63;13.00;;;;;;;4.61;73.52;98830.16;4846227;29;20512;-93
2022/12/24 14:05:27;;;;;;;19.75;10.70;;;;;;;4.36;73.25;98796.81;4858066;29;20045;-95
2022/12/24 14:08:08;;;;;;;21.33;11.48;;;;;;;4.12;73.13;98742.66;4839241;29;20515;-93
2022/12/24 14:11:09;;;;;;;21.02;10.85;;;;;;;4.71;72.86;98844.41;4830753;29;20045;-95
2022/12/24 14:13:40;;;;;;;16.40;10.13;;;;;;;4.81;72.50;98837.28;4849938;29;20096;-96
2022/12/24 14:16:31;;;;;;;17.17;10.80;;;;;;;4.22;72.08;98747.16;4851235;29;20036;-95
2022/12/24 14:19:22;;;;;;;17.50;10.93;;;;;;;4.25;71.78;98749.31;4864100;29;20055;-96
2022/12/24 14:55:00;;;;;;;17.52;9.32;;;;;;;4.13;72.01;98784.84;4874259;29;20121;-92
2022/12/24 14:57:43;;;;;;;18.55;9.07;;;;;;;4.20;71.81;98787.22;4825774;29;20065;-93
2022/12/24 15:00:20;;;;;;;14.63;7.65;;;;;;;4.72;72.39;98900.16;4805194;29;20080;-92
2022/12/24 15:03:17;;;;;;;14.52;8.00;;;;;;;4.21;72.19;98808.59;4802411;29;20051;-95
2022/12/24 15:05:52;;;;;;;13.27;8.13;;;;;;;4.50;72.23;98839.44;4785482;30;20054;-94
2022/12/24 15:12:30;;;;;;;14.07;8.50;;;;;;;4.37;72.75;98838.19;4744532;30;20048;-94
2022/12/24 15:14:58;;;;;;;15.80;8.52;;;;;;;4.12;72.52;98804.88;4736724;30;20059;-94
2022/12/24 15:17:56;;;;;;;17.70;8.95;;;;;;;4.47;72.09;98846.25;4768742;30;20240;-96
2022/12/24 15:21:25;;;;;;;15.20;8.50;;;;;;;4.88;71.93;98903.53;4755019;30;20092;-94
2022/12/24 15:24:30;;;;;;;16.27;8.23;;;;;;;4.54;72.06;98871.09;4717970;30;20046;-92
2022/12/24 15:27:21;;;;;;;13.18;8.27;;;;;;;4.59;72.09;98881.06;4700896;30;20124;-93
2022/12/24 15:30:48;;;;;;;14.25;8.65;;;;;;;4.87;72.03;98917.38;4717746;30;20209;-94
2022/12/24 15:33:23;;;;;;;28.77;8.65;;;;;;;4.13;72.26;98828.13;4710581;30;20092;-94
2022/12/24 15:36:15;;;;;;;12.20;8.82;;;;;;;4.96;71.78;98931.88;4714627;30;20056;-94
2022/12/24 15:38:58;;;;;;;13.65;8.70;;;;;;;4.93;71.60;98941.41;4734896;30;20064;-95
2022/12/24 15:42:34;;;;;;;15.82;8.95;;;;;;;4.94;71.93;98932.19;4880003;29;20123;-94
2022/12/24 15:45:56;;;;;;;20.85;8.65;;;;;;;4.99;71.42;98941.34;4881667;29;20045;-96
2022/12/24 15:49:45;;;;;;;16.17;8.30;;;;;;;4.30;71.56;98860.16;4896984;29;20052;-96
2022/12/24 15:53:20;;;;;;;15.90;7.82;;;;;;;4.92;71.94;98950.63;4893195;29;20067;-94
2022/12/24 15:59:23;;;;;;;17.98;9.98;;;;;;;4.96;71.06;98953.56;5010394;23;20064;-92
2022/12/24 16:50:31;;;;;;;17.45;10.52;;;;;;;5.37;68.27;98943.13;4897823;29;20041;-93
2022/12/24 16:53:32;;;;;;;20.20;9.80;;;;;;;5.66;67.43;98985.63;4818393;29;20069;-94
2022/12/24 16:56:21;;;;;;;13.82;7.85;;;;;;;5.27;67.47;98929.69;4848428;29;20046;-93
2022/12/24 16:59:19;;;;;;;20.13;9.05;;;;;;;5.24;67.37;98930.28;4825464;29;20137;-92
2022/12/24 17:07:22;;;;;;;14.63;8.18;;;;;;;4.91;68.07;98932.75;4918382;29;20156;-93
2022/12/24 17:10:15;;;;;;;12.98;7.90;;;;;;;4.97;68.28;98936.22;4865719;29;20139;-92
2022/12/24 17:12:46;;;;;;;18.08;9.90;;;;;;;5.13;68.67;98980.22;4889392;29;20036;-95
2022/12/24 17:15:57;;;;;;;15.73;8.57;;;;;;;4.89;68.48;98972.03;4904924;29;20025;-93
2022/12/24 17:18:36;;;;;;;97.20;33.80;;;;;;;4.68;69.25;98955.16;4859320;29;20045;-93
2022/12/24 17:21:30;;;;;;;56.15;19.10;;;;;;;4.85;69.51;98982.63;5081716;23;20046;-92
2022/12/24 17:23:59;;;;;;;25.83;10.52;;;;;;;4.79;68.60;98950.47;4871853;29;20042;-93
2022/12/24 17:26:31;;;;;;;36.10;16.98;;;;;;;4.92;68.04;98966.88;4842770;29;20050;-93
2022/12/24 17:31:57;;;;;;;18.95;8.95;;;;;;;4.72;68.41;98970.53;5180492;23;20210;-95
2022/12/24 17:38:44;;;;;;;12.48;7.05;;;;;;;5.29;69.00;99071.13;4946815;24;20044;-96
2022/12/24 17:41:36;;;;;;;16.85;7.63;;;;;;;4.79;69.63;99012.75;4868938;29;20044;-94
2022/12/24 17:48:36;;;;;;;16.65;8.77;;;;;;;5.09;69.46;99034.16;4846330;29;20122;-94
2022/12/24 17:56:35;;;;;;;14.63;7.57;;;;;;;5.27;69.48;99081.47;4794074;30;20066;-93
2022/12/24 18:07:07;;;;;;;13.50;7.13;;;;;;;5.15;69.56;99102.69;5106747;23;20059;-94
2022/12/24 18:10:30;;;;;;;15.25;6.72;;;;;;;4.70;69.09;99056.69;4868199;29;20034;-92
2022/12/24 18:13:04;;;;;;;12.75;7.63;;;;;;;4.35;68.88;99027.91;4851189;29;20058;-95
2022/12/24 18:15:44;;;;;;;12.00;6.78;;;;;;;4.42;68.85;99052.75;4845047;29;20054;-92
2022/12/24 18:18:38;;;;;;;19.33;9.43;;;;;;;4.92;68.75;99123.97;4813624;29;20038;-93
2022/12/24 18:21:16;;;;;;;11.13;5.85;;;;;;;4.20;67.41;99038.81;4799829;29;20050;-94
2022/12/24 18:24:31;;;;;;;8.05;4.97;;;;;;;4.49;66.82;99074.13;4813659;29;20492;-94
2022/12/24 18:27:43;;;;;;;8.82;5.43;;;;;;;4.92;66.63;99142.13;4830821;29;20042;-95
2022/12/24 18:30:14;;;;;;;9.32;4.82;;;;;;;4.39;66.67;99066.84;4790568;30;20115;-95
2022/12/24 18:32:43;;;;;;;8.20;5.22;;;;;;;4.88;65.86;99106.66;4777195;30;20536;-94
2022/12/24 18:35:11;;;;;;;17.63;6.97;;;;;;;5.04;65.23;99101.16;4769847;30;20059;-92
2022/12/24 18:37:40;;;;;;;13.02;5.32;;;;;;;5.50;64.67;99149.59;4773478;30;20047;-93
2022/12/24 18:40:44;;;;;;;10.38;5.75;;;;;;;5.32;64.47;99142.94;4777914;30;20480;-94
2022/12/24 18:43:30;;;;;;;7.35;4.15;;;;;;;4.64;64.22;99062.41;4786522;30;20047;-94
2022/12/24 18:46:10;;;;;;;6.97;3.95;;;;;;;5.06;63.75;99139.59;4799357;30;20059;-94
2022/12/24 18:48:36;;;;;;;;;;;;;;;5.28;63.66;99172.50;4786366;29;20050;-94
2022/12/24 18:51:04;;;;;;;10.60;4.57;;;;;;;4.80;64.75;99142.47;4815315;29;19936;-95
2022/12/24 19:05:02;;;;;;;7.03;4.43;;;;;;;5.56;63.10;99189.09;5365317;23;20052;-93
2022/12/24 19:07:47;;;;;;;7.85;3.80;;;;;;;5.06;62.80;99117.91;4918827;29;20079;-95
2022/12/24 19:16:12;;;;;;;14.13;4.63;;;;;;;5.25;63.01;99162.22;4993036;23;20036;-94
2022/12/24 21:56:13;;;;;;;7.78;4.75;;;;;;;3.67;65.36;99360.13;4918182;29;20153;-94
